KSDM/SDM METAR and TAF weather

Enter ICAO airport designator
Station Type Date Time Source
KSDM METAR 2021/02/27 21:53 UTC NOAA

KSDM 272153Z 27009KT 10SM CLR 18/07 A2991 RMK AO2 SLP128 T01780072


Station Type Date Time Source
KSDM Decoded METAR 2021/02/27 21:53 UTC NOAA

San Diego, Brown Field Municipal Airport, CA, United States (KSDM) 32-34-31N 116-59-35W 159M
Feb 27, 2021 - 04:53 PM EST / 2021.02.27 2153 UTC
Wind: from the W (270 degrees) at 10 MPH (9 KT):0
Visibility: 10 mile(s):0
Sky conditions: clear
Temperature: 64.0 F (17.8 C)
Dew Point: 45.0 F (7.2 C)
Relative Humidity: 49%
Pressure (altimeter): 29.91 in. Hg (1012 hPa)
ob: KSDM 272153Z 27009KT 10SM CLR 18/07 A2991 RMK AO2 SLP128 T01780072
cycle: 22

Station Type Date Time Source
KSDM TAF UTC NOAA

Error!

Example: see airport list